sensor_id;sensor_type;location;lat;lon;timestamp;P1;durP1;ratioP1;P2;durP2;ratioP2
32790;SDS011;19143;59.322;14.502;2023-08-07T00:00:06;0.40;;;0.40;;
32790;SDS011;19143;59.322;14.502;2023-08-07T00:02:37;0.60;;;0.60;;
32790;SDS011;19143;59.322;14.502;2023-08-07T00:05:04;0.90;;;0.50;;
32790;SDS011;19143;59.322;14.502;2023-08-07T00:07:31;0.40;;;0.40;;
32790;SDS011;19143;59.322;14.502;2023-08-07T00:09:58;1.60;;;0.40;;
32790;SDS011;19143;59.322;14.502;2023-08-07T00:12:28;2.07;;;0.50;;
32790;SDS011;19143;59.322;14.502;2023-08-07T00:14:56;1.13;;;0.53;;
32790;SDS011;19143;59.322;14.502;2023-08-07T00:17:29;1.23;;;0.50;;
32790;SDS011;19143;59.322;14.502;2023-08-07T00:19:56;0.30;;;0.30;;
32790;SDS011;19143;59.322;14.502;2023-08-07T00:22:23;0.30;;;0.30;;
32790;SDS011;19143;59.322;14.502;2023-08-07T00:24:50;0.50;;;0.50;;
32790;SDS011;19143;59.322;14.502;2023-08-07T00:27:16;0.97;;;0.60;;
32790;SDS011;19143;59.322;14.502;2023-08-07T00:29:43;0.40;;;0.40;;
32790;SDS011;19143;59.322;14.502;2023-08-07T00:32:13;0.50;;;0.50;;
32790;SDS011;19143;59.322;14.502;2023-08-07T00:34:40;0.50;;;0.50;;
32790;SDS011;19143;59.322;14.502;2023-08-07T00:37:07;0.50;;;0.50;;
32790;SDS011;19143;59.322;14.502;2023-08-07T00:39:33;0.63;;;0.50;;
32790;SDS011;19143;59.322;14.502;2023-08-07T00:42:00;0.53;;;0.50;;
32790;SDS011;19143;59.322;14.502;2023-08-07T00:44:26;0.47;;;0.47;;
32790;SDS011;19143;59.322;14.502;2023-08-07T00:46:53;0.60;;;0.60;;
32790;SDS011;19143;59.322;14.502;2023-08-07T00:49:21;0.60;;;0.60;;
32790;SDS011;19143;59.322;14.502;2023-08-07T00:51:48;0.60;;;0.60;;
32790;SDS011;19143;59.322;14.502;2023-08-07T00:54:15;0.40;;;0.40;;
32790;SDS011;19143;59.322;14.502;2023-08-07T00:56:42;0.50;;;0.50;;
32790;SDS011;19143;59.322;14.502;2023-08-07T00:59:09;0.60;;;0.60;;
32790;SDS011;19143;59.322;14.502;2023-08-07T01:01:36;0.50;;;0.50;;
32790;SDS011;19143;59.322;14.502;2023-08-07T01:04:02;0.80;;;0.80;;
32790;SDS011;19143;59.322;14.502;2023-08-07T01:06:31;0.40;;;0.40;;
32790;SDS011;19143;59.322;14.502;2023-08-07T01:08:58;0.50;;;0.50;;
32790;SDS011;19143;59.322;14.502;2023-08-07T01:11:28;1.80;;;0.50;;
32790;SDS011;19143;59.322;14.502;2023-08-07T01:14:00;0.60;;;0.60;;
32790;SDS011;19143;59.322;14.502;2023-08-07T01:16:29;0.77;;;0.70;;
32790;SDS011;19143;59.322;14.502;2023-08-07T01:18:58;0.70;;;0.70;;
32790;SDS011;19143;59.322;14.502;2023-08-07T01:21:26;0.80;;;0.80;;
32790;SDS011;19143;59.322;14.502;2023-08-07T01:23:54;0.50;;;0.50;;
32790;SDS011;19143;59.322;14.502;2023-08-07T01:26:21;0.57;;;0.57;;
32790;SDS011;19143;59.322;14.502;2023-08-07T01:28:50;0.60;;;0.60;;
32790;SDS011;19143;59.322;14.502;2023-08-07T01:31:17;0.60;;;0.60;;
32790;SDS011;19143;59.322;14.502;2023-08-07T01:33:50;0.73;;;0.73;;
32790;SDS011;19143;59.322;14.502;2023-08-07T01:36:20;0.60;;;0.60;;
32790;SDS011;19143;59.322;14.502;2023-08-07T01:38:49;0.63;;;0.63;;
32790;SDS011;19143;59.322;14.502;2023-08-07T01:41:18;0.67;;;0.67;;
32790;SDS011;19143;59.322;14.502;2023-08-07T01:43:45;0.80;;;0.80;;
32790;SDS011;19143;59.322;14.502;2023-08-07T01:46:12;0.80;;;0.80;;
32790;SDS011;19143;59.322;14.502;2023-08-07T01:48:38;0.63;;;0.63;;
32790;SDS011;19143;59.322;14.502;2023-08-07T01:51:05;0.80;;;0.80;;
32790;SDS011;19143;59.322;14.502;2023-08-07T01:53:31;0.80;;;0.80;;
32790;SDS011;19143;59.322;14.502;2023-08-07T01:55:58;0.60;;;0.60;;
32790;SDS011;19143;59.322;14.502;2023-08-07T01:58:26;0.70;;;0.70;;
32790;SDS011;19143;59.322;14.502;2023-08-07T02:00:53;0.70;;;0.70;;
32790;SDS011;19143;59.322;14.502;2023-08-07T02:03:19;1.37;;;0.80;;
32790;SDS011;19143;59.322;14.502;2023-08-07T02:05:46;0.90;;;0.90;;
32790;SDS011;19143;59.322;14.502;2023-08-07T02:08:12;0.73;;;0.73;;
32790;SDS011;19143;59.322;14.502;2023-08-07T02:10:39;0.70;;;0.70;;
32790;SDS011;19143;59.322;14.502;2023-08-07T02:13:06;0.80;;;0.80;;
32790;SDS011;19143;59.322;14.502;2023-08-07T02:15:34;0.80;;;0.80;;
32790;SDS011;19143;59.322;14.502;2023-08-07T02:18:01;0.90;;;0.90;;
32790;SDS011;19143;59.322;14.502;2023-08-07T02:20:27;0.90;;;0.90;;
32790;SDS011;19143;59.322;14.502;2023-08-07T02:22:54;0.90;;;0.73;;
32790;SDS011;19143;59.322;14.502;2023-08-07T02:25:21;1.47;;;1.10;;
32790;SDS011;19143;59.322;14.502;2023-08-07T02:27:47;1.10;;;1.10;;
32790;SDS011;19143;59.322;14.502;2023-08-07T02:30:14;0.80;;;0.80;;
32790;SDS011;19143;59.322;14.502;2023-08-07T02:32:42;1.70;;;1.03;;
32790;SDS011;19143;59.322;14.502;2023-08-07T02:35:10;0.80;;;0.80;;
32790;SDS011;19143;59.322;14.502;2023-08-07T02:37:37;1.00;;;1.00;;
32790;SDS011;19143;59.322;14.502;2023-08-07T02:40:04;1.03;;;1.03;;
32790;SDS011;19143;59.322;14.502;2023-08-07T02:42:30;0.97;;;0.97;;
32790;SDS011;19143;59.322;14.502;2023-08-07T02:44:57;1.23;;;1.10;;
32790;SDS011;19143;59.322;14.502;2023-08-07T02:47:24;0.90;;;0.90;;
32790;SDS011;19143;59.322;14.502;2023-08-07T02:49:52;1.07;;;1.07;;
32790;SDS011;19143;59.322;14.502;2023-08-07T02:52:19;2.30;;;1.27;;
32790;SDS011;19143;59.322;14.502;2023-08-07T02:54:45;1.33;;;1.30;;
32790;SDS011;19143;59.322;14.502;2023-08-07T02:57:12;1.30;;;1.30;;
32790;SDS011;19143;59.322;14.502;2023-08-07T02:59:38;1.30;;;1.30;;
32790;SDS011;19143;59.322;14.502;2023-08-07T03:02:05;1.40;;;1.40;;
32790;SDS011;19143;59.322;14.502;2023-08-07T03:04:32;2.77;;;1.43;;
32790;SDS011;19143;59.322;14.502;2023-08-07T03:07:00;1.50;;;1.50;;
32790;SDS011;19143;59.322;14.502;2023-08-07T03:09:26;1.30;;;1.30;;
32790;SDS011;19143;59.322;14.502;2023-08-07T03:11:53;1.40;;;1.40;;
32790;SDS011;19143;59.322;14.502;2023-08-07T03:14:20;1.70;;;1.70;;
32790;SDS011;19143;59.322;14.502;2023-08-07T03:16:46;1.37;;;1.37;;
32790;SDS011;19143;59.322;14.502;2023-08-07T03:19:13;1.50;;;1.50;;
32790;SDS011;19143;59.322;14.502;2023-08-07T03:21:39;1.60;;;1.50;;
32790;SDS011;19143;59.322;14.502;2023-08-07T03:24:07;1.60;;;1.60;;
32790;SDS011;19143;59.322;14.502;2023-08-07T03:26:34;2.80;;;1.80;;
32790;SDS011;19143;59.322;14.502;2023-08-07T03:29:01;2.03;;;1.70;;
32790;SDS011;19143;59.322;14.502;2023-08-07T03:31:27;2.27;;;1.73;;
32790;SDS011;19143;59.322;14.502;2023-08-07T03:33:54;1.80;;;1.80;;
32790;SDS011;19143;59.322;14.502;2023-08-07T03:36:21;1.63;;;1.63;;
32790;SDS011;19143;59.322;14.502;2023-08-07T03:38:48;2.17;;;2.00;;
32790;SDS011;19143;59.322;14.502;2023-08-07T03:41:16;1.90;;;1.80;;
32790;SDS011;19143;59.322;14.502;2023-08-07T03:43:42;1.80;;;1.70;;
32790;SDS011;19143;59.322;14.502;2023-08-07T03:46:09;2.57;;;1.87;;
32790;SDS011;19143;59.322;14.502;2023-08-07T03:48:36;1.57;;;1.57;;
32790;SDS011;19143;59.322;14.502;2023-08-07T03:51:03;1.57;;;1.57;;
32790;SDS011;19143;59.322;14.502;2023-08-07T03:53:33;1.80;;;1.80;;
32790;SDS011;19143;59.322;14.502;2023-08-07T03:56:00;2.37;;;2.27;;
32790;SDS011;19143;59.322;14.502;2023-08-07T03:58:28;2.90;;;2.10;;
32790;SDS011;19143;59.322;14.502;2023-08-07T04:00:55;2.50;;;2.30;;
32790;SDS011;19143;59.322;14.502;2023-08-07T04:03:22;3.37;;;2.20;;
32790;SDS011;19143;59.322;14.502;2023-08-07T04:05:51;1.97;;;1.97;;
32790;SDS011;19143;59.322;14.502;2023-08-07T04:08:18;2.00;;;2.00;;
32790;SDS011;19143;59.322;14.502;2023-08-07T04:10:45;2.13;;;2.07;;
32790;SDS011;19143;59.322;14.502;2023-08-07T04:13:11;2.17;;;2.07;;
32790;SDS011;19143;59.322;14.502;2023-08-07T04:15:39;1.90;;;1.90;;
32790;SDS011;19143;59.322;14.502;2023-08-07T04:18:07;2.20;;;2.10;;
32790;SDS011;19143;59.322;14.502;2023-08-07T04:20:33;2.10;;;2.00;;
32790;SDS011;19143;59.322;14.502;2023-08-07T04:23:00;2.50;;;2.40;;
32790;SDS011;19143;59.322;14.502;2023-08-07T04:25:26;2.80;;;2.70;;
32790;SDS011;19143;59.322;14.502;2023-08-07T04:27:53;2.70;;;2.60;;
32790;SDS011;19143;59.322;14.502;2023-08-07T04:30:20;3.83;;;3.27;;
32790;SDS011;19143;59.322;14.502;2023-08-07T04:32:48;2.90;;;2.80;;
32790;SDS011;19143;59.322;14.502;2023-08-07T04:35:15;2.90;;;2.80;;
32790;SDS011;19143;59.322;14.502;2023-08-07T04:37:42;2.97;;;2.80;;
32790;SDS011;19143;59.322;14.502;2023-08-07T04:40:10;4.97;;;2.87;;
32790;SDS011;19143;59.322;14.502;2023-08-07T04:42:36;3.20;;;3.10;;
32790;SDS011;19143;59.322;14.502;2023-08-07T04:45:03;3.30;;;3.10;;
32790;SDS011;19143;59.322;14.502;2023-08-07T04:47:30;3.00;;;2.90;;
32790;SDS011;19143;59.322;14.502;2023-08-07T04:49:58;3.20;;;3.00;;
32790;SDS011;19143;59.322;14.502;2023-08-07T04:52:24;3.60;;;3.40;;
32790;SDS011;19143;59.322;14.502;2023-08-07T04:54:51;3.20;;;3.10;;
32790;SDS011;19143;59.322;14.502;2023-08-07T04:57:17;3.57;;;3.27;;
32790;SDS011;19143;59.322;14.502;2023-08-07T04:59:44;4.23;;;3.50;;
32790;SDS011;19143;59.322;14.502;2023-08-07T05:02:11;3.90;;;3.40;;
32790;SDS011;19143;59.322;14.502;2023-08-07T05:04:38;3.57;;;3.37;;
32790;SDS011;19143;59.322;14.502;2023-08-07T05:07:06;3.90;;;3.70;;
32790;SDS011;19143;59.322;14.502;2023-08-07T05:09:33;3.40;;;3.27;;
32790;SDS011;19143;59.322;14.502;2023-08-07T05:11:59;3.77;;;3.57;;
32790;SDS011;19143;59.322;14.502;2023-08-07T05:14:26;4.50;;;4.10;;
32790;SDS011;19143;59.322;14.502;2023-08-07T05:16:52;4.50;;;4.20;;
32790;SDS011;19143;59.322;14.502;2023-08-07T05:19:19;4.23;;;3.97;;
32790;SDS011;19143;59.322;14.502;2023-08-07T05:21:46;4.30;;;4.00;;
32790;SDS011;19143;59.322;14.502;2023-08-07T05:24:16;4.20;;;3.93;;
32790;SDS011;19143;59.322;14.502;2023-08-07T05:26:43;4.23;;;3.80;;
32790;SDS011;19143;59.322;14.502;2023-08-07T05:29:09;4.53;;;4.30;;
32790;SDS011;19143;59.322;14.502;2023-08-07T05:31:36;4.20;;;4.00;;
32790;SDS011;19143;59.322;14.502;2023-08-07T05:34:03;5.20;;;4.77;;
32790;SDS011;19143;59.322;14.502;2023-08-07T05:36:30;4.70;;;4.40;;
32790;SDS011;19143;59.322;14.502;2023-08-07T05:38:58;4.97;;;4.67;;
32790;SDS011;19143;59.322;14.502;2023-08-07T05:41:26;4.80;;;4.47;;
32790;SDS011;19143;59.322;14.502;2023-08-07T05:43:53;4.90;;;4.50;;
32790;SDS011;19143;59.322;14.502;2023-08-07T05:46:19;5.40;;;4.33;;
32790;SDS011;19143;59.322;14.502;2023-08-07T05:48:46;5.20;;;4.90;;
32790;SDS011;19143;59.322;14.502;2023-08-07T05:51:12;6.60;;;5.10;;
32790;SDS011;19143;59.322;14.502;2023-08-07T05:53:39;5.30;;;5.00;;
32790;SDS011;19143;59.322;14.502;2023-08-07T05:56:05;7.93;;;4.80;;
32790;SDS011;19143;59.322;14.502;2023-08-07T05:58:34;5.60;;;5.20;;
32790;SDS011;19143;59.322;14.502;2023-08-07T06:01:00;5.20;;;4.80;;
32790;SDS011;19143;59.322;14.502;2023-08-07T06:03:27;6.73;;;5.40;;
32790;SDS011;19143;59.322;14.502;2023-08-07T06:05:54;6.50;;;6.00;;
32790;SDS011;19143;59.322;14.502;2023-08-07T06:08:20;6.33;;;5.73;;
32790;SDS011;19143;59.322;14.502;2023-08-07T06:10:47;6.37;;;5.87;;
32790;SDS011;19143;59.322;14.502;2023-08-07T06:13:14;6.93;;;6.33;;
32790;SDS011;19143;59.322;14.502;2023-08-07T06:15:42;6.73;;;6.17;;
32790;SDS011;19143;59.322;14.502;2023-08-07T06:18:08;7.13;;;6.43;;
32790;SDS011;19143;59.322;14.502;2023-08-07T06:20:35;8.20;;;6.50;;
32790;SDS011;19143;59.322;14.502;2023-08-07T06:23:02;7.27;;;6.53;;
32790;SDS011;19143;59.322;14.502;2023-08-07T06:25:28;6.77;;;6.17;;
32790;SDS011;19143;59.322;14.502;2023-08-07T06:27:55;7.07;;;6.47;;
32790;SDS011;19143;59.322;14.502;2023-08-07T06:30:21;8.83;;;6.33;;
32790;SDS011;19143;59.322;14.502;2023-08-07T06:32:49;7.67;;;6.77;;
32790;SDS011;19143;59.322;14.502;2023-08-07T06:35:16;6.53;;;5.93;;
32790;SDS011;19143;59.322;14.502;2023-08-07T06:37:43;7.00;;;6.27;;
32790;SDS011;19143;59.322;14.502;2023-08-07T06:40:10;8.43;;;6.87;;
32790;SDS011;19143;59.322;14.502;2023-08-07T06:42:36;7.33;;;6.30;;
32790;SDS011;19143;59.322;14.502;2023-08-07T06:45:03;7.23;;;6.53;;
32790;SDS011;19143;59.322;14.502;2023-08-07T06:47:30;7.43;;;6.73;;
32790;SDS011;19143;59.322;14.502;2023-08-07T06:49:58;7.80;;;7.00;;
32790;SDS011;19143;59.322;14.502;2023-08-07T06:52:25;7.57;;;6.97;;
32790;SDS011;19143;59.322;14.502;2023-08-07T06:54:51;8.40;;;7.00;;
32790;SDS011;19143;59.322;14.502;2023-08-07T06:57:19;7.47;;;6.70;;
32790;SDS011;19143;59.322;14.502;2023-08-07T06:59:46;7.33;;;6.63;;
32790;SDS011;19143;59.322;14.502;2023-08-07T07:02:13;9.53;;;6.80;;
32790;SDS011;19143;59.322;14.502;2023-08-07T07:04:39;7.40;;;6.70;;
32790;SDS011;19143;59.322;14.502;2023-08-07T07:07:07;8.90;;;8.00;;
32790;SDS011;19143;59.322;14.502;2023-08-07T07:09:34;11.03;;;7.63;;
32790;SDS011;19143;59.322;14.502;2023-08-07T07:12:01;9.70;;;8.00;;
32790;SDS011;19143;59.322;14.502;2023-08-07T07:14:28;9.43;;;8.17;;
32790;SDS011;19143;59.322;14.502;2023-08-07T07:16:54;8.47;;;7.67;;
32790;SDS011;19143;59.322;14.502;2023-08-07T07:19:22;12.90;;;8.80;;
32790;SDS011;19143;59.322;14.502;2023-08-07T07:21:48;9.07;;;8.10;;
32790;SDS011;19143;59.322;14.502;2023-08-07T07:24:17;9.53;;;8.00;;
32790;SDS011;19143;59.322;14.502;2023-08-07T07:26:43;11.47;;;8.60;;
32790;SDS011;19143;59.322;14.502;2023-08-07T07:29:10;13.50;;;8.93;;
32790;SDS011;19143;59.322;14.502;2023-08-07T07:31:37;11.30;;;8.73;;
32790;SDS011;19143;59.322;14.502;2023-08-07T07:34:03;13.37;;;9.20;;
32790;SDS011;19143;59.322;14.502;2023-08-07T07:36:30;10.67;;;8.80;;
32790;SDS011;19143;59.322;14.502;2023-08-07T07:39:10;13.30;;;9.57;;
32790;SDS011;19143;59.322;14.502;2023-08-07T07:41:40;12.30;;;10.43;;
32790;SDS011;19143;59.322;14.502;2023-08-07T07:44:06;12.50;;;10.03;;
32790;SDS011;19143;59.322;14.502;2023-08-07T07:46:33;11.77;;;10.57;;
32790;SDS011;19143;59.322;14.502;2023-08-07T07:49:00;13.50;;;10.87;;
32790;SDS011;19143;59.322;14.502;2023-08-07T07:51:28;13.30;;;11.20;;
32790;SDS011;19143;59.322;14.502;2023-08-07T07:53:55;13.03;;;11.40;;
32790;SDS011;19143;59.322;14.502;2023-08-07T07:56:20;15.93;;;11.57;;
32790;SDS011;19143;59.322;14.502;2023-08-07T08:01:16;16.00;;;12.60;;
32790;SDS011;19143;59.322;14.502;2023-08-07T08:03:44;16.40;;;12.57;;
32790;SDS011;19143;59.322;14.502;2023-08-07T08:06:11;17.53;;;13.50;;
32790;SDS011;19143;59.322;14.502;2023-08-07T08:08:37;16.47;;;14.00;;
32790;SDS011;19143;59.322;14.502;2023-08-07T08:11:04;20.87;;;12.67;;
32790;SDS011;19143;59.322;14.502;2023-08-07T08:13:30;19.73;;;15.27;;
32790;SDS011;19143;59.322;14.502;2023-08-07T08:15:57;22.03;;;13.90;;
32790;SDS011;19143;59.322;14.502;2023-08-07T08:18:25;18.27;;;13.93;;
32790;SDS011;19143;59.322;14.502;2023-08-07T08:20:53;19.10;;;13.90;;
32790;SDS011;19143;59.322;14.502;2023-08-07T08:23:20;22.73;;;14.80;;
32790;SDS011;19143;59.322;14.502;2023-08-07T08:25:46;20.23;;;14.63;;
32790;SDS011;19143;59.322;14.502;2023-08-07T08:28:14;19.77;;;15.30;;
32790;SDS011;19143;59.322;14.502;2023-08-07T08:30:41;17.10;;;14.37;;
32790;SDS011;19143;59.322;14.502;2023-08-07T08:33:08;20.97;;;14.73;;
32790;SDS011;19143;59.322;14.502;2023-08-07T08:35:38;20.57;;;14.57;;
32790;SDS011;19143;59.322;14.502;2023-08-07T08:38:05;17.23;;;13.73;;
32790;SDS011;19143;59.322;14.502;2023-08-07T08:40:38;19.53;;;14.17;;
32790;SDS011;19143;59.322;14.502;2023-08-07T08:43:05;18.13;;;13.93;;
32790;SDS011;19143;59.322;14.502;2023-08-07T08:45:35;18.47;;;14.80;;
32790;SDS011;19143;59.322;14.502;2023-08-07T08:48:03;19.87;;;14.57;;
32790;SDS011;19143;59.322;14.502;2023-08-07T08:50:30;15.90;;;14.20;;
32790;SDS011;19143;59.322;14.502;2023-08-07T08:52:59;19.17;;;14.33;;
32790;SDS011;19143;59.322;14.502;2023-08-07T08:55:26;18.80;;;14.40;;
32790;SDS011;19143;59.322;14.502;2023-08-07T08:57:57;17.60;;;13.70;;
32790;SDS011;19143;59.322;14.502;2023-08-07T09:00:25;19.63;;;13.70;;
32790;SDS011;19143;59.322;14.502;2023-08-07T09:02:59;19.60;;;14.30;;
32790;SDS011;19143;59.322;14.502;2023-08-07T09:05:26;19.17;;;13.90;;
32790;SDS011;19143;59.322;14.502;2023-08-07T09:07:54;19.37;;;14.47;;
32790;SDS011;19143;59.322;14.502;2023-08-07T09:10:23;20.50;;;14.67;;
32790;SDS011;19143;59.322;14.502;2023-08-07T09:12:53;17.40;;;13.63;;
32790;SDS011;19143;59.322;14.502;2023-08-07T09:15:23;23.80;;;15.33;;
32790;SDS011;19143;59.322;14.502;2023-08-07T09:17:54;20.17;;;14.97;;
32790;SDS011;19143;59.322;14.502;2023-08-07T09:20:20;18.97;;;15.30;;
32790;SDS011;19143;59.322;14.502;2023-08-07T09:22:48;20.17;;;15.60;;
32790;SDS011;19143;59.322;14.502;2023-08-07T09:25:15;24.17;;;16.13;;
32790;SDS011;19143;59.322;14.502;2023-08-07T09:27:54;21.77;;;15.90;;
32790;SDS011;19143;59.322;14.502;2023-08-07T09:30:20;21.57;;;16.10;;
32790;SDS011;19143;59.322;14.502;2023-08-07T09:32:47;19.43;;;15.80;;
32790;SDS011;19143;59.322;14.502;2023-08-07T09:35:14;18.03;;;15.40;;
32790;SDS011;19143;59.322;14.502;2023-08-07T09:37:48;19.90;;;16.00;;
32790;SDS011;19143;59.322;14.502;2023-08-07T09:40:14;23.67;;;17.40;;
32790;SDS011;19143;59.322;14.502;2023-08-07T09:42:41;19.77;;;16.87;;
32790;SDS011;19143;59.322;14.502;2023-08-07T09:45:20;21.90;;;17.13;;
32790;SDS011;19143;59.322;14.502;2023-08-07T09:47:46;26.00;;;18.37;;
32790;SDS011;19143;59.322;14.502;2023-08-07T09:50:15;22.27;;;17.63;;
32790;SDS011;19143;59.322;14.502;2023-08-07T09:52:43;22.80;;;17.90;;
32790;SDS011;19143;59.322;14.502;2023-08-07T09:55:12;24.50;;;17.30;;
32790;SDS011;19143;59.322;14.502;2023-08-07T09:57:41;23.73;;;17.73;;
32790;SDS011;19143;59.322;14.502;2023-08-07T10:00:09;25.07;;;18.50;;
32790;SDS011;19143;59.322;14.502;2023-08-07T10:02:38;22.77;;;17.90;;
32790;SDS011;19143;59.322;14.502;2023-08-07T10:05:07;21.00;;;17.10;;
32790;SDS011;19143;59.322;14.502;2023-08-07T10:07:35;24.03;;;17.80;;
32790;SDS011;19143;59.322;14.502;2023-08-07T10:10:02;21.60;;;17.63;;
32790;SDS011;19143;59.322;14.502;2023-08-07T10:12:29;26.17;;;17.77;;
32790;SDS011;19143;59.322;14.502;2023-08-07T10:14:56;24.13;;;18.20;;
32790;SDS011;19143;59.322;14.502;2023-08-07T10:17:22;22.60;;;17.00;;
32790;SDS011;19143;59.322;14.502;2023-08-07T10:19:51;20.63;;;16.43;;
32790;SDS011;19143;59.322;14.502;2023-08-07T10:22:18;23.33;;;16.77;;
32790;SDS011;19143;59.322;14.502;2023-08-07T10:24:46;23.77;;;16.43;;
32790;SDS011;19143;59.322;14.502;2023-08-07T10:27:14;20.53;;;16.80;;
32790;SDS011;19143;59.322;14.502;2023-08-07T10:29:41;21.50;;;16.60;;
32790;SDS011;19143;59.322;14.502;2023-08-07T10:32:09;26.57;;;16.83;;
32790;SDS011;19143;59.322;14.502;2023-08-07T10:34:36;20.63;;;16.27;;
32790;SDS011;19143;59.322;14.502;2023-08-07T10:37:07;21.50;;;16.90;;
32790;SDS011;19143;59.322;14.502;2023-08-07T10:39:33;22.20;;;16.87;;
32790;SDS011;19143;59.322;14.502;2023-08-07T10:42:01;19.77;;;16.63;;
32790;SDS011;19143;59.322;14.502;2023-08-07T10:44:30;23.57;;;16.37;;
32790;SDS011;19143;59.322;14.502;2023-08-07T10:46:57;19.93;;;16.00;;
32790;SDS011;19143;59.322;14.502;2023-08-07T10:49:30;19.83;;;16.30;;
32790;SDS011;19143;59.322;14.502;2023-08-07T10:51:57;22.93;;;15.73;;
32790;SDS011;19143;59.322;14.502;2023-08-07T10:54:38;18.43;;;15.83;;
32790;SDS011;19143;59.322;14.502;2023-08-07T10:57:09;21.60;;;15.80;;
32790;SDS011;19143;59.322;14.502;2023-08-07T10:59:37;20.07;;;16.13;;
32790;SDS011;19143;59.322;14.502;2023-08-07T11:02:22;19.23;;;16.27;;
32790;SDS011;19143;59.322;14.502;2023-08-07T11:04:49;20.07;;;15.87;;
32790;SDS011;19143;59.322;14.502;2023-08-07T11:07:22;21.67;;;15.37;;
32790;SDS011;19143;59.322;14.502;2023-08-07T11:09:50;21.83;;;16.33;;
32790;SDS011;19143;59.322;14.502;2023-08-07T11:12:17;19.57;;;16.33;;
32790;SDS011;19143;59.322;14.502;2023-08-07T11:14:43;23.63;;;16.50;;
32790;SDS011;19143;59.322;14.502;2023-08-07T11:17:10;19.87;;;16.30;;
32790;SDS011;19143;59.322;14.502;2023-08-07T11:19:37;18.67;;;16.10;;
32790;SDS011;19143;59.322;14.502;2023-08-07T11:22:04;24.73;;;15.97;;
32790;SDS011;19143;59.322;14.502;2023-08-07T11:24:31;22.13;;;16.87;;
32790;SDS011;19143;59.322;14.502;2023-08-07T11:26:59;19.57;;;16.47;;
32790;SDS011;19143;59.322;14.502;2023-08-07T11:29:25;19.77;;;16.53;;
32790;SDS011;19143;59.322;14.502;2023-08-07T11:31:52;24.63;;;17.37;;
32790;SDS011;19143;59.322;14.502;2023-08-07T11:34:19;25.23;;;16.53;;
32790;SDS011;19143;59.322;14.502;2023-08-07T11:36:46;22.53;;;16.50;;
32790;SDS011;19143;59.322;14.502;2023-08-07T11:39:13;23.40;;;16.00;;
32790;SDS011;19143;59.322;14.502;2023-08-07T11:41:42;23.50;;;16.90;;
32790;SDS011;19143;59.322;14.502;2023-08-07T11:44:11;21.47;;;15.97;;
32790;SDS011;19143;59.322;14.502;2023-08-07T11:46:37;21.77;;;15.63;;
32790;SDS011;19143;59.322;14.502;2023-08-07T11:49:04;18.80;;;16.17;;
32790;SDS011;19143;59.322;14.502;2023-08-07T11:51:30;26.37;;;16.03;;
32790;SDS011;19143;59.322;14.502;2023-08-07T11:53:58;19.33;;;16.10;;
32790;SDS011;19143;59.322;14.502;2023-08-07T11:56:24;19.60;;;15.80;;
32790;SDS011;19143;59.322;14.502;2023-08-07T11:58:51;22.13;;;15.93;;
32790;SDS011;19143;59.322;14.502;2023-08-07T12:01:20;23.60;;;16.83;;
32790;SDS011;19143;59.322;14.502;2023-08-07T12:03:51;23.20;;;16.40;;
32790;SDS011;19143;59.322;14.502;2023-08-07T12:06:18;21.73;;;16.70;;
32790;SDS011;19143;59.322;14.502;2023-08-07T12:08:45;23.00;;;16.40;;
32790;SDS011;19143;59.322;14.502;2023-08-07T12:11:14;23.90;;;16.20;;
32790;SDS011;19143;59.322;14.502;2023-08-07T12:13:41;21.10;;;15.53;;
32790;SDS011;19143;59.322;14.502;2023-08-07T12:16:08;19.53;;;15.93;;
32790;SDS011;19143;59.322;14.502;2023-08-07T12:18:42;26.77;;;16.07;;
32790;SDS011;19143;59.322;14.502;2023-08-07T12:21:09;21.40;;;15.83;;
32790;SDS011;19143;59.322;14.502;2023-08-07T12:23:36;21.10;;;15.57;;
32790;SDS011;19143;59.322;14.502;2023-08-07T12:26:07;19.17;;;15.57;;
32790;SDS011;19143;59.322;14.502;2023-08-07T12:28:34;22.50;;;15.60;;
32790;SDS011;19143;59.322;14.502;2023-08-07T12:31:00;23.07;;;16.00;;
32790;SDS011;19143;59.322;14.502;2023-08-07T12:33:28;20.77;;;15.57;;
32790;SDS011;19143;59.322;14.502;2023-08-07T12:35:56;19.10;;;15.53;;
32790;SDS011;19143;59.322;14.502;2023-08-07T12:38:23;20.17;;;15.70;;
32790;SDS011;19143;59.322;14.502;2023-08-07T12:40:49;20.80;;;15.13;;
32790;SDS011;19143;59.322;14.502;2023-08-07T12:43:16;21.33;;;15.23;;
32790;SDS011;19143;59.322;14.502;2023-08-07T12:45:43;23.10;;;15.23;;
32790;SDS011;19143;59.322;14.502;2023-08-07T12:48:10;21.77;;;15.50;;
32790;SDS011;19143;59.322;14.502;2023-08-07T12:50:37;24.67;;;14.87;;
32790;SDS011;19143;59.322;14.502;2023-08-07T12:53:05;19.33;;;15.80;;
32790;SDS011;19143;59.322;14.502;2023-08-07T12:55:32;18.10;;;15.27;;
32790;SDS011;19143;59.322;14.502;2023-08-07T12:57:59;24.63;;;14.93;;
32790;SDS011;19143;59.322;14.502;2023-08-07T13:00:25;20.17;;;15.80;;
32790;SDS011;19143;59.322;14.502;2023-08-07T13:02:52;17.97;;;14.83;;
32790;SDS011;19143;59.322;14.502;2023-08-07T13:05:20;22.70;;;15.50;;
32790;SDS011;19143;59.322;14.502;2023-08-07T13:07:47;24.93;;;14.43;;
32790;SDS011;19143;59.322;14.502;2023-08-07T13:10:15;15.97;;;13.13;;
32790;SDS011;19143;59.322;14.502;2023-08-07T13:12:43;20.40;;;13.77;;
32790;SDS011;19143;59.322;14.502;2023-08-07T13:15:11;17.90;;;13.63;;
32790;SDS011;19143;59.322;14.502;2023-08-07T13:17:38;22.33;;;12.90;;
32790;SDS011;19143;59.322;14.502;2023-08-07T13:20:05;20.30;;;13.33;;
32790;SDS011;19143;59.322;14.502;2023-08-07T13:22:33;19.73;;;11.93;;
32790;SDS011;19143;59.322;14.502;2023-08-07T13:25:00;14.47;;;12.90;;
32790;SDS011;19143;59.322;14.502;2023-08-07T13:27:29;18.33;;;12.53;;
32790;SDS011;19143;59.322;14.502;2023-08-07T13:29:56;19.13;;;12.30;;
32790;SDS011;19143;59.322;14.502;2023-08-07T13:32:22;15.60;;;11.30;;
32790;SDS011;19143;59.322;14.502;2023-08-07T13:34:49;14.33;;;11.23;;
32790;SDS011;19143;59.322;14.502;2023-08-07T13:37:15;14.97;;;11.70;;
32790;SDS011;19143;59.322;14.502;2023-08-07T13:39:42;15.17;;;11.70;;
32790;SDS011;19143;59.322;14.502;2023-08-07T13:42:08;14.00;;;10.87;;
32790;SDS011;19143;59.322;14.502;2023-08-07T13:44:37;12.07;;;10.57;;
32790;SDS011;19143;59.322;14.502;2023-08-07T13:47:04;14.83;;;10.67;;
32790;SDS011;19143;59.322;14.502;2023-08-07T13:49:31;11.73;;;10.43;;
32790;SDS011;19143;59.322;14.502;2023-08-07T13:51:57;11.37;;;9.90;;
32790;SDS011;19143;59.322;14.502;2023-08-07T13:54:24;13.03;;;11.10;;
32790;SDS011;19143;59.322;14.502;2023-08-07T13:56:51;12.60;;;9.67;;
32790;SDS011;19143;59.322;14.502;2023-08-07T13:59:18;13.73;;;10.53;;
32790;SDS011;19143;59.322;14.502;2023-08-07T14:01:46;12.57;;;9.87;;
32790;SDS011;19143;59.322;14.502;2023-08-07T14:04:12;14.00;;;10.27;;
32790;SDS011;19143;59.322;14.502;2023-08-07T14:06:40;13.23;;;10.10;;
32790;SDS011;19143;59.322;14.502;2023-08-07T14:09:08;14.27;;;10.33;;
32790;SDS011;19143;59.322;14.502;2023-08-07T14:11:36;10.40;;;9.37;;
32790;SDS011;19143;59.322;14.502;2023-08-07T14:14:02;14.70;;;10.40;;
32790;SDS011;19143;59.322;14.502;2023-08-07T14:16:29;11.60;;;9.70;;
32790;SDS011;19143;59.322;14.502;2023-08-07T14:18:58;9.90;;;8.97;;
32790;SDS011;19143;59.322;14.502;2023-08-07T14:21:24;11.97;;;9.40;;
32790;SDS011;19143;59.322;14.502;2023-08-07T14:23:51;15.17;;;9.70;;
32790;SDS011;19143;59.322;14.502;2023-08-07T14:26:17;12.00;;;9.20;;